createdAt,value
2022-11-17T00:02:12.493Z,28.20
2022-11-17T00:07:14.963Z,28.20
2022-11-17T00:12:35.750Z,28.20
2022-11-17T00:17:37.997Z,28.20
2022-11-17T00:22:40.103Z,28.20
2022-11-17T00:27:42.144Z,28.10
2022-11-17T00:38:17.227Z,28.20
2022-11-17T00:43:19.282Z,28.20
2022-11-17T00:48:21.305Z,28.20
2022-11-17T00:53:23.372Z,28.20
2022-11-17T00:58:25.404Z,28.20
2022-11-17T01:03:27.751Z,28.20
2022-11-17T01:08:29.865Z,28.20
2022-11-17T01:13:32.306Z,28.20
2022-11-17T01:18:35.629Z,28.20
2022-11-17T01:23:40.011Z,28.20
2022-11-17T01:28:42.222Z,28.10
2022-11-17T01:33:45.345Z,28.20
2022-11-17T01:38:47.486Z,28.10
2022-11-17T01:43:51.040Z,28.10
2022-11-17T01:48:57.382Z,28.10
2022-11-17T01:54:00.426Z,28.20
2022-11-17T01:59:10.065Z,28.10
2022-11-17T02:04:12.194Z,28.40
2022-11-17T02:09:14.353Z,28.40
2022-11-17T02:14:16.650Z,28.40
2022-11-17T02:19:22.558Z,28.30
2022-11-17T02:29:42.509Z,28.50
2022-11-17T02:35:02.752Z,28.60
2022-11-17T02:40:13.461Z,28.60
2022-11-17T02:45:24.781Z,28.70
2022-11-17T02:50:29.471Z,28.80
2022-11-17T02:55:35.300Z,28.70
2022-11-17T03:00:43.976Z,28.90
2022-11-17T03:06:12.570Z,29.30
2022-11-17T03:11:14.879Z,29.20
2022-11-17T03:16:30.007Z,29.20
2022-11-17T03:21:51.119Z,29.20
2022-11-17T03:27:10.034Z,29.80
2022-11-17T03:32:14.950Z,29.60
2022-11-17T03:37:21.728Z,29.70
2022-11-17T03:42:30.445Z,29.80
2022-11-17T03:47:34.444Z,29.90
2022-11-17T03:52:37.947Z,30.00
2022-11-17T03:58:06.958Z,30.10
2022-11-17T04:03:09.131Z,30.30
2022-11-17T04:08:11.203Z,30.40
2022-11-17T04:13:31.753Z,30.50
2022-11-17T04:18:33.901Z,30.80
2022-11-17T04:23:36.282Z,30.80
2022-11-17T04:28:42.277Z,31.00
2022-11-17T04:33:51.560Z,31.30
2022-11-17T04:38:55.929Z,31.30
2022-11-17T04:43:58.692Z,31.30
2022-11-17T04:49:01.327Z,31.20
2022-11-17T04:59:07.592Z,31.60
2022-11-17T05:04:12.097Z,31.60
2022-11-17T05:09:16.556Z,31.70
2022-11-17T05:14:20.760Z,31.70
2022-11-17T05:19:27.722Z,31.80
2022-11-17T05:29:32.208Z,32.10
2022-11-17T05:39:36.746Z,32.30
2022-11-17T05:49:41.977Z,32.30
2022-11-17T05:54:44.016Z,32.40
2022-11-17T05:59:53.091Z,32.40
2022-11-17T06:09:57.713Z,32.40
2022-11-17T06:14:59.771Z,32.30
2022-11-17T06:20:12.270Z,32.30
2022-11-17T06:25:15.820Z,32.30
2022-11-17T06:30:18.289Z,32.40
2022-11-17T06:35:20.527Z,32.40
2022-11-17T06:40:22.555Z,32.40
2022-11-17T06:45:24.606Z,32.60
2022-11-17T06:50:26.720Z,32.70
2022-11-17T06:55:29.422Z,32.50
2022-11-17T07:00:31.734Z,32.80
2022-11-17T07:05:35.244Z,32.60
2022-11-17T07:10:37.867Z,32.70
2022-11-17T07:15:40.558Z,32.90
2022-11-17T07:20:42.676Z,32.90
2022-11-17T07:25:44.851Z,33.10
2022-11-17T07:30:46.981Z,32.90
2022-11-17T07:35:49.303Z,33.00
2022-11-17T07:45:55.270Z,33.00
2022-11-17T07:51:01.612Z,33.00
2022-11-17T07:56:06.617Z,32.90
2022-11-17T08:01:16.690Z,32.70
2022-11-17T08:06:18.925Z,32.80
2022-11-17T08:11:21.199Z,32.90
2022-11-17T08:16:23.331Z,32.90
2022-11-17T08:21:25.832Z,32.90
2022-11-17T08:26:27.946Z,32.90
2022-11-17T08:31:30.380Z,32.90
2022-11-17T08:36:32.522Z,33.10
2022-11-17T08:41:34.688Z,33.10
2022-11-17T08:46:36.917Z,33.30
2022-11-17T08:51:39.181Z,33.30
2022-11-17T08:56:41.472Z,33.30
2022-11-17T09:01:43.763Z,33.40
2022-11-17T09:06:46.039Z,33.30
2022-11-17T09:11:48.365Z,33.40
2022-11-17T09:16:50.557Z,33.60
2022-11-17T09:21:54.785Z,33.70
2022-11-17T09:26:57.593Z,33.50
2022-11-17T09:31:59.733Z,31.60
2022-11-17T09:42:04.667Z,32.00
2022-11-17T09:47:25.727Z,31.10
2022-11-17T09:53:03.176Z,30.80
2022-11-17T09:58:38.586Z,30.10
2022-11-17T10:03:46.150Z,30.00
2022-11-17T10:09:26.210Z,30.00
2022-11-17T10:14:30.083Z,30.40
2022-11-17T10:19:36.486Z,30.70
2022-11-17T10:24:41.448Z,30.30
2022-11-17T10:30:05.376Z,29.50
2022-11-17T10:35:19.482Z,29.60
2022-11-17T10:45:28.700Z,29.60
2022-11-17T10:50:30.822Z,29.70
2022-11-17T10:55:33.990Z,29.80
2022-11-17T11:00:37.406Z,29.30
2022-11-17T11:05:57.952Z,28.30
2022-11-17T11:11:02.018Z,28.50
2022-11-17T11:16:05.246Z,28.30
2022-11-17T11:21:34.227Z,29.00
2022-11-17T11:26:39.008Z,28.30
2022-11-17T11:32:09.533Z,27.60
2022-11-17T11:37:13.564Z,28.00
2022-11-17T11:42:30.575Z,27.40
2022-11-17T11:48:00.725Z,26.40
2022-11-17T11:53:21.554Z,26.00
2022-11-17T11:58:24.800Z,25.40
2022-11-17T12:03:45.586Z,25.10
2022-11-17T12:09:12.925Z,25.30
2022-11-17T12:14:18.510Z,26.00
2022-11-17T12:19:42.413Z,25.40
2022-11-17T12:24:46.013Z,25.40
2022-11-17T12:35:25.539Z,23.30
2022-11-17T12:40:39.516Z,21.70
2022-11-17T12:46:16.448Z,22.10
2022-11-17T12:51:21.500Z,22.60
2022-11-17T12:56:32.477Z,21.30
2022-11-17T13:01:55.747Z,21.80
2022-11-17T13:07:06.698Z,21.70
2022-11-17T13:12:10.984Z,21.00
2022-11-17T13:17:13.799Z,21.70
2022-11-17T13:22:17.066Z,22.50
2022-11-17T13:27:26.528Z,22.80
2022-11-17T13:32:28.860Z,23.00
2022-11-17T13:37:31.112Z,23.80
2022-11-17T13:42:34.285Z,23.10
2022-11-17T13:47:36.361Z,23.50
2022-11-17T13:52:45.408Z,24.60
2022-11-17T13:58:00.248Z,24.40
2022-11-17T14:03:05.454Z,24.90
2022-11-17T14:08:22.147Z,25.10
2022-11-17T14:13:29.846Z,25.60
2022-11-17T14:18:34.323Z,25.00
2022-11-17T14:23:36.481Z,25.40
2022-11-17T14:28:38.615Z,26.30
2022-11-17T14:33:41.046Z,26.00
2022-11-17T14:38:46.930Z,26.60
2022-11-17T14:43:50.365Z,27.00
2022-11-17T14:48:53.764Z,27.20
2022-11-17T14:53:55.878Z,26.70
2022-11-17T14:58:59.735Z,27.10
2022-11-17T15:04:20.789Z,27.00
2022-11-17T15:09:25.585Z,27.20
2022-11-17T15:14:27.911Z,27.30
2022-11-17T15:19:30.046Z,27.20
2022-11-17T15:24:32.237Z,27.90
2022-11-17T15:29:34.726Z,28.50
2022-11-17T15:34:36.820Z,28.40
2022-11-17T15:39:38.931Z,28.70
2022-11-17T15:49:43.691Z,28.40
2022-11-17T15:54:45.790Z,28.70
2022-11-17T16:04:50.381Z,28.30
2022-11-17T16:09:52.772Z,28.20
2022-11-17T16:14:54.880Z,28.60
2022-11-17T16:19:56.991Z,28.80
2022-11-17T16:24:59.129Z,29.30
2022-11-17T16:30:01.762Z,29.20
2022-11-17T16:35:03.871Z,29.20
2022-11-17T16:40:06.872Z,29.20
2022-11-17T16:55:14.564Z,30.00
2022-11-17T17:00:17.755Z,30.00
2022-11-17T17:05:20.211Z,30.30
2022-11-17T17:15:25.106Z,30.30
2022-11-17T17:20:27.251Z,30.70
2022-11-17T17:25:29.435Z,30.90
2022-11-17T17:30:31.501Z,30.80
2022-11-17T17:35:34.662Z,31.00
2022-11-17T17:40:36.775Z,30.80
2022-11-17T17:45:38.852Z,30.80
2022-11-17T17:50:41.021Z,31.10
2022-11-17T17:55:45.652Z,31.10
2022-11-17T18:00:49.716Z,31.10
2022-11-17T18:05:51.817Z,31.30
2022-11-17T18:10:59.119Z,31.20
2022-11-17T18:16:22.175Z,31.30
2022-11-17T18:21:24.789Z,32.60
2022-11-17T18:26:32.897Z,31.60
2022-11-17T18:31:36.981Z,31.50
2022-11-17T18:36:39.049Z,31.60
2022-11-17T18:41:41.255Z,32.30
2022-11-17T18:46:43.471Z,31.30
2022-11-17T18:51:46.110Z,32.00
2022-11-17T18:56:49.938Z,31.20
2022-11-17T19:01:52.089Z,31.20
2022-11-17T19:06:54.201Z,31.20
2022-11-17T19:11:56.439Z,31.10
2022-11-17T19:16:58.528Z,31.20
2022-11-17T19:27:03.699Z,31.00
2022-11-17T19:32:05.797Z,31.00
2022-11-17T19:37:07.898Z,31.70
2022-11-17T19:42:09.995Z,30.90
2022-11-17T19:47:12.084Z,31.00
2022-11-17T19:52:14.565Z,31.30
2022-11-17T19:57:16.789Z,31.30
2022-11-17T20:02:20.009Z,31.50
2022-11-17T20:07:22.185Z,31.60
2022-11-17T20:12:24.358Z,31.70
2022-11-17T20:17:26.621Z,31.70
2022-11-17T20:22:28.751Z,31.80
2022-11-17T20:27:31.321Z,32.10
2022-11-17T20:32:35.359Z,32.00
2022-11-17T20:37:37.549Z,33.20
2022-11-17T20:42:39.659Z,32.80
2022-11-17T20:47:41.817Z,32.70
2022-11-17T20:52:43.899Z,33.00
2022-11-17T20:57:46.054Z,32.90
2022-11-17T21:02:49.616Z,33.00
2022-11-17T21:07:51.686Z,32.90
2022-11-17T21:12:53.759Z,32.90
2022-11-17T21:18:14.544Z,32.90
2022-11-17T21:23:16.707Z,32.80
2022-11-17T21:28:18.881Z,32.90
2022-11-17T21:33:20.971Z,32.80
2022-11-17T21:38:23.144Z,32.90
2022-11-17T21:43:25.195Z,33.00
2022-11-17T21:48:27.263Z,33.10
2022-11-17T21:53:30.398Z,33.10
2022-11-17T21:58:33.719Z,33.00
2022-11-17T22:03:36.587Z,32.90
2022-11-17T22:08:40.785Z,32.90
2022-11-17T22:13:43.013Z,33.00
2022-11-17T22:18:45.057Z,32.90
2022-11-17T22:23:47.151Z,32.80
2022-11-17T22:28:54.130Z,32.80
2022-11-17T22:33:56.224Z,32.90
2022-11-17T22:38:58.376Z,32.80
2022-11-17T22:49:03.210Z,32.90
2022-11-17T22:54:06.585Z,32.90
2022-11-17T22:59:09.049Z,32.90
2022-11-17T23:04:12.198Z,32.90
2022-11-17T23:09:14.465Z,32.90
2022-11-17T23:14:16.845Z,32.90
2022-11-17T23:19:19.099Z,33.10
2022-11-17T23:29:23.932Z,33.10
2022-11-17T23:34:27.572Z,33.10
2022-11-17T23:39:29.623Z,33.10
2022-11-17T23:44:31.844Z,33.20
2022-11-17T23:49:33.908Z,33.10
2022-11-17T23:54:35.955Z,33.10
2022-11-17T23:59:38.278Z,33.00
